sensor_id;sensor_type;location;lat;lon;timestamp;P1;durP1;ratioP1;P2;durP2;ratioP2
65825;SDS011;52586;-43.152;172.732;2022-07-18T00:00:31;1.25;;;0.30;;
65825;SDS011;52586;-43.152;172.732;2022-07-18T00:03:02;0.30;;;0.30;;
65825;SDS011;52586;-43.152;172.732;2022-07-18T00:05:33;1.83;;;0.40;;
65825;SDS011;52586;-43.152;172.732;2022-07-18T00:08:05;0.95;;;0.30;;
65825;SDS011;52586;-43.152;172.732;2022-07-18T00:10:36;1.80;;;0.40;;
65825;SDS011;52586;-43.152;172.732;2022-07-18T00:13:07;0.30;;;0.30;;
65825;SDS011;52586;-43.152;172.732;2022-07-18T00:15:38;1.17;;;0.43;;
65825;SDS011;52586;-43.152;172.732;2022-07-18T00:18:09;0.38;;;0.25;;
65825;SDS011;52586;-43.152;172.732;2022-07-18T00:20:40;1.13;;;0.28;;
65825;SDS011;52586;-43.152;172.732;2022-07-18T00:23:12;1.13;;;0.20;;
65825;SDS011;52586;-43.152;172.732;2022-07-18T00:25:43;2.17;;;0.60;;
65825;SDS011;52586;-43.152;172.732;2022-07-18T00:28:14;0.65;;;0.40;;
65825;SDS011;52586;-43.152;172.732;2022-07-18T00:30:45;1.20;;;0.25;;
65825;SDS011;52586;-43.152;172.732;2022-07-18T00:33:15;1.77;;;0.70;;
65825;SDS011;52586;-43.152;172.732;2022-07-18T00:35:46;1.40;;;0.30;;
65825;SDS011;52586;-43.152;172.732;2022-07-18T00:38:20;3.42;;;0.50;;
65825;SDS011;52586;-43.152;172.732;2022-07-18T00:40:50;0.60;;;0.40;;
65825;SDS011;52586;-43.152;172.732;2022-07-18T00:43:22;0.40;;;0.40;;
65825;SDS011;52586;-43.152;172.732;2022-07-18T00:45:53;0.40;;;0.40;;
65825;SDS011;52586;-43.152;172.732;2022-07-18T00:48:24;0.32;;;0.32;;
65825;SDS011;52586;-43.152;172.732;2022-07-18T00:50:55;0.40;;;0.35;;
65825;SDS011;52586;-43.152;172.732;2022-07-18T00:53:27;1.20;;;0.38;;
65825;SDS011;52586;-43.152;172.732;2022-07-18T00:55:58;1.15;;;0.40;;
65825;SDS011;52586;-43.152;172.732;2022-07-18T00:58:30;1.00;;;0.40;;
65825;SDS011;52586;-43.152;172.732;2022-07-18T01:01:02;1.38;;;0.40;;
65825;SDS011;52586;-43.152;172.732;2022-07-18T01:03:49;0.32;;;0.30;;
65825;SDS011;52586;-43.152;172.732;2022-07-18T01:06:19;0.30;;;0.30;;
65825;SDS011;52586;-43.152;172.732;2022-07-18T01:08:52;0.88;;;0.32;;
65825;SDS011;52586;-43.152;172.732;2022-07-18T01:11:23;1.10;;;0.40;;
65825;SDS011;52586;-43.152;172.732;2022-07-18T01:13:54;1.08;;;0.60;;
65825;SDS011;52586;-43.152;172.732;2022-07-18T01:16:24;0.73;;;0.30;;
65825;SDS011;52586;-43.152;172.732;2022-07-18T01:18:55;1.00;;;0.40;;
65825;SDS011;52586;-43.152;172.732;2022-07-18T01:21:28;0.82;;;0.38;;
65825;SDS011;52586;-43.152;172.732;2022-07-18T01:23:59;0.77;;;0.30;;
65825;SDS011;52586;-43.152;172.732;2022-07-18T01:26:29;1.48;;;0.40;;
65825;SDS011;52586;-43.152;172.732;2022-07-18T01:29:03;1.45;;;0.50;;
65825;SDS011;52586;-43.152;172.732;2022-07-18T01:31:34;1.73;;;0.47;;
65825;SDS011;52586;-43.152;172.732;2022-07-18T01:34:05;0.90;;;0.30;;
65825;SDS011;52586;-43.152;172.732;2022-07-18T01:36:39;0.30;;;0.30;;
65825;SDS011;52586;-43.152;172.732;2022-07-18T01:39:10;0.95;;;0.30;;
65825;SDS011;52586;-43.152;172.732;2022-07-18T01:41:41;0.77;;;0.43;;
65825;SDS011;52586;-43.152;172.732;2022-07-18T01:44:12;1.13;;;0.40;;
65825;SDS011;52586;-43.152;172.732;2022-07-18T01:46:43;0.60;;;0.20;;
65825;SDS011;52586;-43.152;172.732;2022-07-18T01:49:13;0.88;;;0.30;;
65825;SDS011;52586;-43.152;172.732;2022-07-18T01:51:46;1.67;;;0.45;;
65825;SDS011;52586;-43.152;172.732;2022-07-18T01:54:19;0.98;;;0.20;;
65825;SDS011;52586;-43.152;172.732;2022-07-18T01:56:54;0.60;;;0.28;;
65825;SDS011;52586;-43.152;172.732;2022-07-18T01:59:24;1.92;;;0.40;;
65825;SDS011;52586;-43.152;172.732;2022-07-18T02:01:55;1.55;;;0.32;;
65825;SDS011;52586;-43.152;172.732;2022-07-18T02:04:26;0.35;;;0.30;;
65825;SDS011;52586;-43.152;172.732;2022-07-18T02:07:11;0.40;;;0.40;;
65825;SDS011;52586;-43.152;172.732;2022-07-18T02:09:42;1.20;;;0.30;;
65825;SDS011;52586;-43.152;172.732;2022-07-18T02:12:13;0.43;;;0.30;;
65825;SDS011;52586;-43.152;172.732;2022-07-18T02:14:44;1.20;;;0.40;;
65825;SDS011;52586;-43.152;172.732;2022-07-18T02:17:15;0.30;;;0.30;;
65825;SDS011;52586;-43.152;172.732;2022-07-18T02:19:47;0.88;;;0.40;;
65825;SDS011;52586;-43.152;172.732;2022-07-18T02:22:19;0.30;;;0.30;;
65825;SDS011;52586;-43.152;172.732;2022-07-18T02:24:50;1.35;;;0.40;;
65825;SDS011;52586;-43.152;172.732;2022-07-18T02:27:21;1.58;;;0.40;;
65825;SDS011;52586;-43.152;172.732;2022-07-18T02:29:52;1.58;;;0.47;;
65825;SDS011;52586;-43.152;172.732;2022-07-18T02:32:23;0.75;;;0.52;;
65825;SDS011;52586;-43.152;172.732;2022-07-18T02:34:54;1.13;;;0.30;;
65825;SDS011;52586;-43.152;172.732;2022-07-18T02:37:26;0.93;;;0.32;;
65825;SDS011;52586;-43.152;172.732;2022-07-18T02:39:58;0.40;;;0.30;;
65825;SDS011;52586;-43.152;172.732;2022-07-18T02:42:28;0.50;;;0.30;;
65825;SDS011;52586;-43.152;172.732;2022-07-18T02:44:59;0.20;;;0.20;;
65825;SDS011;52586;-43.152;172.732;2022-07-18T02:47:30;1.10;;;0.30;;
65825;SDS011;52586;-43.152;172.732;2022-07-18T02:50:00;0.40;;;0.40;;
65825;SDS011;52586;-43.152;172.732;2022-07-18T02:52:33;0.30;;;0.30;;
65825;SDS011;52586;-43.152;172.732;2022-07-18T02:55:04;0.40;;;0.30;;
65825;SDS011;52586;-43.152;172.732;2022-07-18T02:57:36;1.98;;;0.30;;
65825;SDS011;52586;-43.152;172.732;2022-07-18T03:00:08;0.28;;;0.25;;
65825;SDS011;52586;-43.152;172.732;2022-07-18T03:02:40;0.93;;;0.30;;
65825;SDS011;52586;-43.152;172.732;2022-07-18T03:05:11;0.32;;;0.20;;
65825;SDS011;52586;-43.152;172.732;2022-07-18T03:07:44;0.22;;;0.22;;
65825;SDS011;52586;-43.152;172.732;2022-07-18T03:10:14;0.20;;;0.20;;
65825;SDS011;52586;-43.152;172.732;2022-07-18T03:12:45;1.10;;;0.30;;
65825;SDS011;52586;-43.152;172.732;2022-07-18T03:15:16;0.73;;;0.30;;
65825;SDS011;52586;-43.152;172.732;2022-07-18T03:17:47;0.25;;;0.15;;
65825;SDS011;52586;-43.152;172.732;2022-07-18T03:20:18;0.30;;;0.30;;
65825;SDS011;52586;-43.152;172.732;2022-07-18T03:22:51;0.30;;;0.30;;
65825;SDS011;52586;-43.152;172.732;2022-07-18T03:25:23;0.55;;;0.30;;
65825;SDS011;52586;-43.152;172.732;2022-07-18T03:27:54;0.57;;;0.30;;
65825;SDS011;52586;-43.152;172.732;2022-07-18T03:30:25;0.38;;;0.20;;
65825;SDS011;52586;-43.152;172.732;2022-07-18T03:32:55;0.80;;;0.30;;
65825;SDS011;52586;-43.152;172.732;2022-07-18T03:35:26;0.50;;;0.30;;
65825;SDS011;52586;-43.152;172.732;2022-07-18T03:37:59;0.85;;;0.25;;
65825;SDS011;52586;-43.152;172.732;2022-07-18T03:40:30;1.05;;;0.20;;
65825;SDS011;52586;-43.152;172.732;2022-07-18T03:43:01;0.85;;;0.17;;
65825;SDS011;52586;-43.152;172.732;2022-07-18T03:45:31;1.73;;;0.30;;
65825;SDS011;52586;-43.152;172.732;2022-07-18T03:48:02;0.65;;;0.20;;
65825;SDS011;52586;-43.152;172.732;2022-07-18T03:50:33;0.20;;;0.20;;
65825;SDS011;52586;-43.152;172.732;2022-07-18T03:53:06;1.35;;;0.25;;
65825;SDS011;52586;-43.152;172.732;2022-07-18T03:55:37;0.57;;;0.40;;
65825;SDS011;52586;-43.152;172.732;2022-07-18T03:58:07;1.33;;;0.40;;
65825;SDS011;52586;-43.152;172.732;2022-07-18T04:00:38;0.52;;;0.22;;
65825;SDS011;52586;-43.152;172.732;2022-07-18T04:03:09;0.70;;;0.30;;
65825;SDS011;52586;-43.152;172.732;2022-07-18T04:05:39;0.65;;;0.20;;
65825;SDS011;52586;-43.152;172.732;2022-07-18T04:08:12;1.17;;;0.35;;
65825;SDS011;52586;-43.152;172.732;2022-07-18T04:10:43;0.70;;;0.35;;
65825;SDS011;52586;-43.152;172.732;2022-07-18T04:13:14;1.58;;;0.50;;
65825;SDS011;52586;-43.152;172.732;2022-07-18T04:15:45;0.47;;;0.35;;
65825;SDS011;52586;-43.152;172.732;2022-07-18T04:18:15;1.80;;;0.63;;
65825;SDS011;52586;-43.152;172.732;2022-07-18T04:20:46;1.35;;;0.40;;
65825;SDS011;52586;-43.152;172.732;2022-07-18T04:23:19;1.95;;;0.60;;
65825;SDS011;52586;-43.152;172.732;2022-07-18T04:25:50;0.82;;;0.70;;
65825;SDS011;52586;-43.152;172.732;2022-07-18T04:28:21;3.35;;;0.93;;
65825;SDS011;52586;-43.152;172.732;2022-07-18T04:30:51;1.40;;;0.60;;
65825;SDS011;52586;-43.152;172.732;2022-07-18T04:33:22;0.45;;;0.43;;
65825;SDS011;52586;-43.152;172.732;2022-07-18T04:35:53;1.42;;;0.60;;
65825;SDS011;52586;-43.152;172.732;2022-07-18T04:38:26;1.95;;;0.68;;
65825;SDS011;52586;-43.152;172.732;2022-07-18T04:41:00;1.38;;;0.63;;
65825;SDS011;52586;-43.152;172.732;2022-07-18T04:43:31;1.05;;;0.50;;
65825;SDS011;52586;-43.152;172.732;2022-07-18T04:46:01;1.23;;;0.60;;
65825;SDS011;52586;-43.152;172.732;2022-07-18T04:48:32;1.00;;;0.57;;
65825;SDS011;52586;-43.152;172.732;2022-07-18T04:51:04;1.42;;;0.50;;
65825;SDS011;52586;-43.152;172.732;2022-07-18T04:53:38;1.35;;;0.50;;
65825;SDS011;52586;-43.152;172.732;2022-07-18T04:56:09;1.23;;;0.52;;
65825;SDS011;52586;-43.152;172.732;2022-07-18T04:58:40;0.70;;;0.60;;
65825;SDS011;52586;-43.152;172.732;2022-07-18T05:01:10;0.90;;;0.60;;
65825;SDS011;52586;-43.152;172.732;2022-07-18T05:03:41;1.65;;;0.65;;
65825;SDS011;52586;-43.152;172.732;2022-07-18T05:06:12;0.90;;;0.63;;
65825;SDS011;52586;-43.152;172.732;2022-07-18T05:08:45;0.75;;;0.47;;
65825;SDS011;52586;-43.152;172.732;2022-07-18T05:11:16;0.88;;;0.40;;
65825;SDS011;52586;-43.152;172.732;2022-07-18T05:13:47;0.40;;;0.40;;
65825;SDS011;52586;-43.152;172.732;2022-07-18T05:16:17;1.83;;;0.55;;
65825;SDS011;52586;-43.152;172.732;2022-07-18T05:18:48;0.70;;;0.40;;
65825;SDS011;52586;-43.152;172.732;2022-07-18T05:21:19;0.40;;;0.40;;
65825;SDS011;52586;-43.152;172.732;2022-07-18T05:23:51;0.40;;;0.35;;
65825;SDS011;52586;-43.152;172.732;2022-07-18T05:26:22;2.10;;;0.65;;
65825;SDS011;52586;-43.152;172.732;2022-07-18T05:28:53;2.25;;;0.50;;
65825;SDS011;52586;-43.152;172.732;2022-07-18T05:31:24;0.77;;;0.50;;
65825;SDS011;52586;-43.152;172.732;2022-07-18T05:33:54;0.32;;;0.32;;
65825;SDS011;52586;-43.152;172.732;2022-07-18T05:36:25;0.50;;;0.50;;
65825;SDS011;52586;-43.152;172.732;2022-07-18T05:38:58;0.68;;;0.60;;
65825;SDS011;52586;-43.152;172.732;2022-07-18T05:41:29;0.40;;;0.40;;
65825;SDS011;52586;-43.152;172.732;2022-07-18T05:43:59;0.63;;;0.30;;
65825;SDS011;52586;-43.152;172.732;2022-07-18T05:46:30;0.82;;;0.40;;
65825;SDS011;52586;-43.152;172.732;2022-07-18T05:49:01;1.40;;;0.60;;
65825;SDS011;52586;-43.152;172.732;2022-07-18T05:51:32;1.00;;;0.50;;
65825;SDS011;52586;-43.152;172.732;2022-07-18T05:54:05;0.47;;;0.40;;
65825;SDS011;52586;-43.152;172.732;2022-07-18T05:56:36;1.48;;;0.50;;
65825;SDS011;52586;-43.152;172.732;2022-07-18T05:59:06;1.80;;;0.57;;
65825;SDS011;52586;-43.152;172.732;2022-07-18T06:01:37;0.50;;;0.40;;
65825;SDS011;52586;-43.152;172.732;2022-07-18T06:04:08;0.63;;;0.40;;
65825;SDS011;52586;-43.152;172.732;2022-07-18T06:06:39;0.65;;;0.30;;
65825;SDS011;52586;-43.152;172.732;2022-07-18T06:09:12;0.32;;;0.32;;
65825;SDS011;52586;-43.152;172.732;2022-07-18T06:11:43;1.05;;;0.50;;
65825;SDS011;52586;-43.152;172.732;2022-07-18T06:14:14;1.45;;;0.50;;
65825;SDS011;52586;-43.152;172.732;2022-07-18T06:16:44;0.88;;;0.40;;
65825;SDS011;52586;-43.152;172.732;2022-07-18T06:19:15;1.17;;;0.43;;
65825;SDS011;52586;-43.152;172.732;2022-07-18T06:21:46;0.55;;;0.40;;
65825;SDS011;52586;-43.152;172.732;2022-07-18T06:24:20;0.60;;;0.45;;
65825;SDS011;52586;-43.152;172.732;2022-07-18T06:26:51;0.45;;;0.45;;
65825;SDS011;52586;-43.152;172.732;2022-07-18T06:29:22;0.68;;;0.45;;
65825;SDS011;52586;-43.152;172.732;2022-07-18T06:31:53;0.30;;;0.30;;
65825;SDS011;52586;-43.152;172.732;2022-07-18T06:34:24;1.08;;;0.60;;
65825;SDS011;52586;-43.152;172.732;2022-07-18T06:36:54;1.75;;;0.70;;
65825;SDS011;52586;-43.152;172.732;2022-07-18T06:39:27;0.55;;;0.55;;
65825;SDS011;52586;-43.152;172.732;2022-07-18T06:41:58;0.40;;;0.40;;
65825;SDS011;52586;-43.152;172.732;2022-07-18T06:44:28;0.65;;;0.50;;
65825;SDS011;52586;-43.152;172.732;2022-07-18T06:46:59;1.10;;;0.57;;
65825;SDS011;52586;-43.152;172.732;2022-07-18T06:49:30;1.02;;;0.60;;
65825;SDS011;52586;-43.152;172.732;2022-07-18T06:52:00;2.67;;;0.60;;
65825;SDS011;52586;-43.152;172.732;2022-07-18T06:54:33;1.13;;;0.50;;
65825;SDS011;52586;-43.152;172.732;2022-07-18T06:57:05;1.30;;;0.50;;
65825;SDS011;52586;-43.152;172.732;2022-07-18T06:59:36;1.42;;;0.50;;
65825;SDS011;52586;-43.152;172.732;2022-07-18T07:02:06;0.70;;;0.65;;
65825;SDS011;52586;-43.152;172.732;2022-07-18T07:04:37;0.77;;;0.50;;
65825;SDS011;52586;-43.152;172.732;2022-07-18T07:07:08;0.82;;;0.70;;
65825;SDS011;52586;-43.152;172.732;2022-07-18T07:09:41;1.35;;;0.57;;
65825;SDS011;52586;-43.152;172.732;2022-07-18T07:12:11;1.55;;;0.60;;
65825;SDS011;52586;-43.152;172.732;2022-07-18T07:14:42;1.77;;;0.50;;
65825;SDS011;52586;-43.152;172.732;2022-07-18T07:17:13;0.55;;;0.43;;
65825;SDS011;52586;-43.152;172.732;2022-07-18T07:19:44;0.60;;;0.55;;
65825;SDS011;52586;-43.152;172.732;2022-07-18T07:22:15;1.15;;;0.50;;
65825;SDS011;52586;-43.152;172.732;2022-07-18T07:24:47;0.60;;;0.50;;
65825;SDS011;52586;-43.152;172.732;2022-07-18T07:27:18;1.30;;;0.50;;
65825;SDS011;52586;-43.152;172.732;2022-07-18T07:29:49;0.75;;;0.50;;
65825;SDS011;52586;-43.152;172.732;2022-07-18T07:32:20;1.65;;;0.70;;
65825;SDS011;52586;-43.152;172.732;2022-07-18T07:34:50;0.80;;;0.50;;
65825;SDS011;52586;-43.152;172.732;2022-07-18T07:37:21;0.45;;;0.45;;
65825;SDS011;52586;-43.152;172.732;2022-07-18T07:39:53;1.70;;;0.45;;
65825;SDS011;52586;-43.152;172.732;2022-07-18T07:42:24;1.15;;;0.50;;
65825;SDS011;52586;-43.152;172.732;2022-07-18T07:44:55;0.50;;;0.43;;
65825;SDS011;52586;-43.152;172.732;2022-07-18T07:47:26;0.70;;;0.50;;
65825;SDS011;52586;-43.152;172.732;2022-07-18T07:49:57;1.73;;;0.40;;
65825;SDS011;52586;-43.152;172.732;2022-07-18T07:52:27;1.05;;;0.70;;
65825;SDS011;52586;-43.152;172.732;2022-07-18T07:55:00;1.20;;;0.50;;
65825;SDS011;52586;-43.152;172.732;2022-07-18T07:57:31;0.40;;;0.40;;
65825;SDS011;52586;-43.152;172.732;2022-07-18T08:00:03;1.55;;;0.47;;
65825;SDS011;52586;-43.152;172.732;2022-07-18T08:02:36;0.80;;;0.60;;
65825;SDS011;52586;-43.152;172.732;2022-07-18T08:05:18;0.65;;;0.50;;
65825;SDS011;52586;-43.152;172.732;2022-07-18T08:07:49;1.40;;;0.50;;
65825;SDS011;52586;-43.152;172.732;2022-07-18T08:10:21;1.38;;;0.60;;
65825;SDS011;52586;-43.152;172.732;2022-07-18T08:12:53;1.67;;;0.50;;
65825;SDS011;52586;-43.152;172.732;2022-07-18T08:15:23;1.08;;;0.43;;
65825;SDS011;52586;-43.152;172.732;2022-07-18T08:17:54;1.40;;;0.55;;
65825;SDS011;52586;-43.152;172.732;2022-07-18T08:20:25;0.77;;;0.63;;
65825;SDS011;52586;-43.152;172.732;2022-07-18T08:22:57;1.45;;;0.60;;
65825;SDS011;52586;-43.152;172.732;2022-07-18T08:25:32;1.08;;;0.50;;
65825;SDS011;52586;-43.152;172.732;2022-07-18T08:28:04;0.68;;;0.60;;
65825;SDS011;52586;-43.152;172.732;2022-07-18T08:30:35;0.77;;;0.52;;
65825;SDS011;52586;-43.152;172.732;2022-07-18T08:33:06;0.50;;;0.40;;
65825;SDS011;52586;-43.152;172.732;2022-07-18T08:35:37;0.60;;;0.40;;
65825;SDS011;52586;-43.152;172.732;2022-07-18T08:38:08;0.60;;;0.52;;
65825;SDS011;52586;-43.152;172.732;2022-07-18T08:40:40;1.05;;;0.60;;
65825;SDS011;52586;-43.152;172.732;2022-07-18T08:43:13;0.98;;;0.57;;
65825;SDS011;52586;-43.152;172.732;2022-07-18T08:45:45;1.15;;;0.60;;
65825;SDS011;52586;-43.152;172.732;2022-07-18T08:48:16;0.50;;;0.50;;
65825;SDS011;52586;-43.152;172.732;2022-07-18T08:50:47;1.15;;;0.55;;
65825;SDS011;52586;-43.152;172.732;2022-07-18T08:53:18;0.73;;;0.50;;
65825;SDS011;52586;-43.152;172.732;2022-07-18T08:55:51;0.35;;;0.35;;
65825;SDS011;52586;-43.152;172.732;2022-07-18T08:58:22;0.43;;;0.43;;
65825;SDS011;52586;-43.152;172.732;2022-07-18T09:00:52;0.73;;;0.40;;
65825;SDS011;52586;-43.152;172.732;2022-07-18T09:03:24;1.40;;;0.57;;
65825;SDS011;52586;-43.152;172.732;2022-07-18T09:08:57;0.40;;;0.40;;
65825;SDS011;52586;-43.152;172.732;2022-07-18T09:11:31;0.77;;;0.50;;
65825;SDS011;52586;-43.152;172.732;2022-07-18T09:14:02;1.23;;;0.40;;
65825;SDS011;52586;-43.152;172.732;2022-07-18T09:16:33;0.57;;;0.40;;
65825;SDS011;52586;-43.152;172.732;2022-07-18T09:19:05;1.27;;;0.70;;
65825;SDS011;52586;-43.152;172.732;2022-07-18T09:21:36;0.55;;;0.55;;
65825;SDS011;52586;-43.152;172.732;2022-07-18T09:24:07;0.70;;;0.60;;
65825;SDS011;52586;-43.152;172.732;2022-07-18T09:26:41;0.90;;;0.50;;
65825;SDS011;52586;-43.152;172.732;2022-07-18T09:29:14;1.05;;;0.60;;
65825;SDS011;52586;-43.152;172.732;2022-07-18T09:31:48;1.05;;;0.70;;
65825;SDS011;52586;-43.152;172.732;2022-07-18T09:34:32;1.05;;;0.50;;
65825;SDS011;52586;-43.152;172.732;2022-07-18T09:37:04;1.95;;;0.60;;
65825;SDS011;52586;-43.152;172.732;2022-07-18T09:39:39;1.15;;;0.60;;
65825;SDS011;52586;-43.152;172.732;2022-07-18T09:42:17;3.03;;;1.08;;
65825;SDS011;52586;-43.152;172.732;2022-07-18T09:44:56;1.08;;;0.98;;
65825;SDS011;52586;-43.152;172.732;2022-07-18T09:47:27;1.27;;;1.17;;
65825;SDS011;52586;-43.152;172.732;2022-07-18T09:49:58;3.20;;;1.30;;
65825;SDS011;52586;-43.152;172.732;2022-07-18T09:52:29;1.55;;;1.20;;
65825;SDS011;52586;-43.152;172.732;2022-07-18T09:55:03;4.32;;;1.30;;
65825;SDS011;52586;-43.152;172.732;2022-07-18T09:57:36;3.47;;;1.63;;
65825;SDS011;52586;-43.152;172.732;2022-07-18T10:00:08;3.60;;;1.45;;
65825;SDS011;52586;-43.152;172.732;2022-07-18T10:02:39;2.67;;;1.50;;
65825;SDS011;52586;-43.152;172.732;2022-07-18T10:05:11;1.92;;;1.40;;
65825;SDS011;52586;-43.152;172.732;2022-07-18T10:07:42;3.78;;;1.48;;
65825;SDS011;52586;-43.152;172.732;2022-07-18T10:10:14;2.10;;;1.50;;
65825;SDS011;52586;-43.152;172.732;2022-07-18T10:12:47;2.20;;;1.90;;
65825;SDS011;52586;-43.152;172.732;2022-07-18T10:15:19;2.10;;;1.42;;
65825;SDS011;52586;-43.152;172.732;2022-07-18T10:17:51;2.83;;;1.35;;
65825;SDS011;52586;-43.152;172.732;2022-07-18T10:20:26;2.63;;;1.40;;
65825;SDS011;52586;-43.152;172.732;2022-07-18T10:23:01;2.13;;;1.50;;
65825;SDS011;52586;-43.152;172.732;2022-07-18T10:25:44;4.28;;;1.65;;
65825;SDS011;52586;-43.152;172.732;2022-07-18T10:28:34;2.47;;;1.83;;
65825;SDS011;52586;-43.152;172.732;2022-07-18T10:31:14;3.33;;;1.65;;
65825;SDS011;52586;-43.152;172.732;2022-07-18T10:33:45;2.45;;;1.63;;
65825;SDS011;52586;-43.152;172.732;2022-07-18T10:36:17;2.35;;;1.50;;
65825;SDS011;52586;-43.152;172.732;2022-07-18T10:39:04;2.03;;;1.40;;
65825;SDS011;52586;-43.152;172.732;2022-07-18T10:44:36;2.42;;;1.40;;
65825;SDS011;52586;-43.152;172.732;2022-07-18T10:47:08;1.77;;;1.17;;
65825;SDS011;52586;-43.152;172.732;2022-07-18T10:55:28;1.90;;;1.30;;
65825;SDS011;52586;-43.152;172.732;2022-07-18T11:01:10;2.42;;;1.50;;
65825;SDS011;52586;-43.152;172.732;2022-07-18T11:03:45;2.13;;;1.30;;
65825;SDS011;52586;-43.152;172.732;2022-07-18T11:06:16;1.52;;;1.20;;
65825;SDS011;52586;-43.152;172.732;2022-07-18T11:14:59;1.35;;;1.20;;
65825;SDS011;52586;-43.152;172.732;2022-07-18T11:18:04;2.42;;;1.20;;
65825;SDS011;52586;-43.152;172.732;2022-07-18T11:20:39;1.98;;;1.30;;
65825;SDS011;52586;-43.152;172.732;2022-07-18T11:23:15;1.38;;;1.13;;
65825;SDS011;52586;-43.152;172.732;2022-07-18T11:25:47;1.88;;;1.15;;
65825;SDS011;52586;-43.152;172.732;2022-07-18T11:28:20;1.85;;;1.17;;
65825;SDS011;52586;-43.152;172.732;2022-07-18T11:31:01;2.30;;;1.13;;
65825;SDS011;52586;-43.152;172.732;2022-07-18T11:33:36;2.08;;;1.02;;
65825;SDS011;52586;-43.152;172.732;2022-07-18T11:36:12;1.70;;;1.00;;
65825;SDS011;52586;-43.152;172.732;2022-07-18T11:38:46;1.83;;;1.35;;
65825;SDS011;52586;-43.152;172.732;2022-07-18T11:41:18;2.65;;;1.30;;
65825;SDS011;52586;-43.152;172.732;2022-07-18T11:43:50;1.83;;;1.23;;
65825;SDS011;52586;-43.152;172.732;2022-07-18T11:46:22;2.03;;;1.33;;
65825;SDS011;52586;-43.152;172.732;2022-07-18T11:48:59;1.48;;;1.08;;
65825;SDS011;52586;-43.152;172.732;2022-07-18T11:51:33;2.30;;;1.15;;
65825;SDS011;52586;-43.152;172.732;2022-07-18T11:54:05;8.77;;;3.38;;
65825;SDS011;52586;-43.152;172.732;2022-07-18T11:56:44;6.22;;;2.47;;
65825;SDS011;52586;-43.152;172.732;2022-07-18T11:59:16;3.85;;;2.00;;
65825;SDS011;52586;-43.152;172.732;2022-07-18T12:01:47;5.88;;;2.10;;
65825;SDS011;52586;-43.152;172.732;2022-07-18T12:04:23;3.70;;;2.45;;
65825;SDS011;52586;-43.152;172.732;2022-07-18T12:07:13;4.15;;;2.05;;
65825;SDS011;52586;-43.152;172.732;2022-07-18T12:09:45;4.18;;;1.83;;
65825;SDS011;52586;-43.152;172.732;2022-07-18T12:12:17;3.88;;;1.88;;
65825;SDS011;52586;-43.152;172.732;2022-07-18T12:14:55;7.70;;;2.15;;
65825;SDS011;52586;-43.152;172.732;2022-07-18T12:17:28;5.50;;;2.30;;
65825;SDS011;52586;-43.152;172.732;2022-07-18T12:20:14;5.30;;;1.95;;
65825;SDS011;52586;-43.152;172.732;2022-07-18T12:23:07;2.70;;;1.70;;
65825;SDS011;52586;-43.152;172.732;2022-07-18T12:25:39;4.03;;;1.92;;
65825;SDS011;52586;-43.152;172.732;2022-07-18T12:28:13;4.00;;;2.08;;
65825;SDS011;52586;-43.152;172.732;2022-07-18T12:30:45;3.78;;;1.95;;
65825;SDS011;52586;-43.152;172.732;2022-07-18T12:33:16;2.78;;;1.55;;
65825;SDS011;52586;-43.152;172.732;2022-07-18T12:35:53;3.85;;;2.00;;
65825;SDS011;52586;-43.152;172.732;2022-07-18T12:38:25;4.80;;;1.65;;
65825;SDS011;52586;-43.152;172.732;2022-07-18T12:40:56;3.35;;;1.73;;
65825;SDS011;52586;-43.152;172.732;2022-07-18T12:43:29;4.63;;;1.90;;
65825;SDS011;52586;-43.152;172.732;2022-07-18T12:46:02;3.45;;;1.98;;
65825;SDS011;52586;-43.152;172.732;2022-07-18T12:48:35;3.15;;;1.88;;
65825;SDS011;52586;-43.152;172.732;2022-07-18T12:51:08;4.53;;;2.00;;
65825;SDS011;52586;-43.152;172.732;2022-07-18T12:53:40;3.58;;;1.77;;
65825;SDS011;52586;-43.152;172.732;2022-07-18T12:56:12;4.35;;;1.80;;
65825;SDS011;52586;-43.152;172.732;2022-07-18T12:58:42;4.00;;;1.70;;
65825;SDS011;52586;-43.152;172.732;2022-07-18T13:01:15;4.25;;;2.10;;
65825;SDS011;52586;-43.152;172.732;2022-07-18T13:03:46;4.03;;;2.38;;
65825;SDS011;52586;-43.152;172.732;2022-07-18T13:06:19;4.35;;;2.30;;
65825;SDS011;52586;-43.152;172.732;2022-07-18T13:08:49;4.70;;;2.08;;
65825;SDS011;52586;-43.152;172.732;2022-07-18T13:11:20;3.60;;;1.73;;
65825;SDS011;52586;-43.152;172.732;2022-07-18T13:13:51;4.25;;;2.10;;
65825;SDS011;52586;-43.152;172.732;2022-07-18T13:16:21;3.70;;;2.08;;
65825;SDS011;52586;-43.152;172.732;2022-07-18T13:18:52;3.42;;;1.77;;
65825;SDS011;52586;-43.152;172.732;2022-07-18T13:21:24;4.05;;;2.08;;
65825;SDS011;52586;-43.152;172.732;2022-07-18T13:23:55;4.35;;;2.13;;
65825;SDS011;52586;-43.152;172.732;2022-07-18T13:26:26;3.80;;;2.03;;
65825;SDS011;52586;-43.152;172.732;2022-07-18T13:28:57;3.92;;;1.60;;
65825;SDS011;52586;-43.152;172.732;2022-07-18T13:31:28;5.82;;;2.08;;
65825;SDS011;52586;-43.152;172.732;2022-07-18T13:33:59;5.03;;;2.00;;
65825;SDS011;52586;-43.152;172.732;2022-07-18T13:36:31;3.83;;;1.92;;
65825;SDS011;52586;-43.152;172.732;2022-07-18T13:39:02;5.90;;;2.13;;
65825;SDS011;52586;-43.152;172.732;2022-07-18T13:41:33;3.03;;;1.75;;
65825;SDS011;52586;-43.152;172.732;2022-07-18T13:44:04;4.30;;;2.00;;
65825;SDS011;52586;-43.152;172.732;2022-07-18T13:46:34;3.78;;;2.00;;
65825;SDS011;52586;-43.152;172.732;2022-07-18T13:49:07;3.28;;;1.95;;
65825;SDS011;52586;-43.152;172.732;2022-07-18T13:51:40;3.90;;;2.40;;
65825;SDS011;52586;-43.152;172.732;2022-07-18T13:54:11;3.88;;;2.17;;
65825;SDS011;52586;-43.152;172.732;2022-07-18T13:56:42;3.08;;;1.83;;
65825;SDS011;52586;-43.152;172.732;2022-07-18T13:59:13;3.13;;;1.95;;
65825;SDS011;52586;-43.152;172.732;2022-07-18T14:01:44;3.65;;;1.98;;
65825;SDS011;52586;-43.152;172.732;2022-07-18T14:04:15;4.13;;;2.00;;
65825;SDS011;52586;-43.152;172.732;2022-07-18T14:06:48;3.15;;;2.03;;
65825;SDS011;52586;-43.152;172.732;2022-07-18T14:09:19;3.88;;;1.88;;
65825;SDS011;52586;-43.152;172.732;2022-07-18T14:11:52;4.32;;;2.00;;
65825;SDS011;52586;-43.152;172.732;2022-07-18T14:14:23;3.25;;;1.83;;
65825;SDS011;52586;-43.152;172.732;2022-07-18T14:16:54;4.25;;;1.88;;
65825;SDS011;52586;-43.152;172.732;2022-07-18T14:19:25;3.65;;;1.83;;
65825;SDS011;52586;-43.152;172.732;2022-07-18T14:21:57;4.97;;;2.25;;
65825;SDS011;52586;-43.152;172.732;2022-07-18T14:24:28;2.80;;;1.83;;
65825;SDS011;52586;-43.152;172.732;2022-07-18T14:26:59;4.70;;;2.05;;
65825;SDS011;52586;-43.152;172.732;2022-07-18T14:29:29;3.92;;;1.85;;
65825;SDS011;52586;-43.152;172.732;2022-07-18T14:32:00;4.07;;;2.03;;
65825;SDS011;52586;-43.152;172.732;2022-07-18T14:34:31;3.47;;;2.00;;
65825;SDS011;52586;-43.152;172.732;2022-07-18T14:37:04;4.43;;;1.92;;
65825;SDS011;52586;-43.152;172.732;2022-07-18T14:39:35;4.35;;;2.35;;
65825;SDS011;52586;-43.152;172.732;2022-07-18T14:42:05;5.43;;;2.40;;
65825;SDS011;52586;-43.152;172.732;2022-07-18T14:44:36;5.72;;;2.20;;
65825;SDS011;52586;-43.152;172.732;2022-07-18T14:47:07;4.78;;;2.20;;
65825;SDS011;52586;-43.152;172.732;2022-07-18T14:49:38;3.60;;;2.10;;
65825;SDS011;52586;-43.152;172.732;2022-07-18T14:52:10;5.28;;;2.50;;
65825;SDS011;52586;-43.152;172.732;2022-07-18T14:54:41;2.92;;;1.70;;
65825;SDS011;52586;-43.152;172.732;2022-07-18T14:57:12;3.03;;;1.88;;